sensor_id;sensor_type;location;lat;lon;timestamp;temperature;humidity
66598;DHT22;57424;53.128;6.406;2023-05-10T00:01:11;21.00;58.50
66598;DHT22;57424;53.128;6.406;2023-05-10T00:03:37;21.00;58.50
66598;DHT22;57424;53.128;6.406;2023-05-10T00:06:02;21.00;58.60
66598;DHT22;57424;53.128;6.406;2023-05-10T00:08:28;21.00;58.60
66598;DHT22;57424;53.128;6.406;2023-05-10T00:10:53;21.00;58.70
66598;DHT22;57424;53.128;6.406;2023-05-10T00:13:19;21.00;58.60
66598;DHT22;57424;53.128;6.406;2023-05-10T00:15:45;20.90;58.60
66598;DHT22;57424;53.128;6.406;2023-05-10T00:18:11;20.90;58.60
66598;DHT22;57424;53.128;6.406;2023-05-10T00:20:36;20.90;58.60
66598;DHT22;57424;53.128;6.406;2023-05-10T00:23:02;20.90;58.60
66598;DHT22;57424;53.128;6.406;2023-05-10T00:25:27;20.90;58.60
66598;DHT22;57424;53.128;6.406;2023-05-10T00:27:53;20.80;58.60
66598;DHT22;57424;53.128;6.406;2023-05-10T00:30:20;20.80;58.60
66598;DHT22;57424;53.128;6.406;2023-05-10T00:32:46;20.80;59.00
66598;DHT22;57424;53.128;6.406;2023-05-10T00:35:13;20.80;58.60
66598;DHT22;57424;53.128;6.406;2023-05-10T00:37:38;20.80;58.70
66598;DHT22;57424;53.128;6.406;2023-05-10T00:40:05;20.80;58.70
66598;DHT22;57424;53.128;6.406;2023-05-10T00:42:31;20.80;58.70
66598;DHT22;57424;53.128;6.406;2023-05-10T00:44:56;20.80;58.70
66598;DHT22;57424;53.128;6.406;2023-05-10T00:47:23;20.80;58.70
66598;DHT22;57424;53.128;6.406;2023-05-10T00:49:48;20.70;58.70
66598;DHT22;57424;53.128;6.406;2023-05-10T00:52:14;20.70;58.70
66598;DHT22;57424;53.128;6.406;2023-05-10T00:54:40;20.70;58.70
66598;DHT22;57424;53.128;6.406;2023-05-10T00:57:06;20.70;58.70
66598;DHT22;57424;53.128;6.406;2023-05-10T00:59:32;20.70;58.70
66598;DHT22;57424;53.128;6.406;2023-05-10T01:01:58;20.70;58.70
66598;DHT22;57424;53.128;6.406;2023-05-10T01:04:23;20.70;58.70
66598;DHT22;57424;53.128;6.406;2023-05-10T01:06:51;20.70;58.70
66598;DHT22;57424;53.128;6.406;2023-05-10T01:09:18;20.70;58.70
66598;DHT22;57424;53.128;6.406;2023-05-10T01:11:44;20.60;58.70
66598;DHT22;57424;53.128;6.406;2023-05-10T01:14:10;20.60;58.70
66598;DHT22;57424;53.128;6.406;2023-05-10T01:16:38;20.60;58.70
66598;DHT22;57424;53.128;6.406;2023-05-10T01:19:17;20.60;58.70
66598;DHT22;57424;53.128;6.406;2023-05-10T01:32:43;20.50;58.70
66598;DHT22;57424;53.128;6.406;2023-05-10T01:37:42;20.60;58.70
66598;DHT22;57424;53.128;6.406;2023-05-10T01:43:03;20.50;58.60
66598;DHT22;57424;53.128;6.406;2023-05-10T01:45:33;20.50;58.60
66598;DHT22;57424;53.128;6.406;2023-05-10T01:48:09;20.50;58.60
66598;DHT22;57424;53.128;6.406;2023-05-10T01:50:37;20.50;58.70
66598;DHT22;57424;53.128;6.406;2023-05-10T01:53:07;20.50;58.60
66598;DHT22;57424;53.128;6.406;2023-05-10T01:55:36;20.50;59.30
66598;DHT22;57424;53.128;6.406;2023-05-10T01:58:09;20.50;58.70
66598;DHT22;57424;53.128;6.406;2023-05-10T02:00:35;20.50;58.70
66598;DHT22;57424;53.128;6.406;2023-05-10T02:03:07;20.50;58.70
66598;DHT22;57424;53.128;6.406;2023-05-10T02:05:34;20.50;58.60
66598;DHT22;57424;53.128;6.406;2023-05-10T02:08:04;20.50;58.70
66598;DHT22;57424;53.128;6.406;2023-05-10T02:10:32;20.50;58.70
66598;DHT22;57424;53.128;6.406;2023-05-10T02:12:59;20.50;58.70
66598;DHT22;57424;53.128;6.406;2023-05-10T02:15:26;20.50;58.70
66598;DHT22;57424;53.128;6.406;2023-05-10T02:17:54;20.50;58.60
66598;DHT22;57424;53.128;6.406;2023-05-10T02:20:22;20.40;58.60
66598;DHT22;57424;53.128;6.406;2023-05-10T02:22:49;20.50;58.60
66598;DHT22;57424;53.128;6.406;2023-05-10T02:25:18;20.40;58.60
66598;DHT22;57424;53.128;6.406;2023-05-10T02:27:44;20.40;58.50
66598;DHT22;57424;53.128;6.406;2023-05-10T02:30:11;20.50;58.60
66598;DHT22;57424;53.128;6.406;2023-05-10T02:32:38;20.40;58.50
66598;DHT22;57424;53.128;6.406;2023-05-10T02:35:05;20.40;58.50
66598;DHT22;57424;53.128;6.406;2023-05-10T02:37:31;20.40;58.60
66598;DHT22;57424;53.128;6.406;2023-05-10T02:39:58;20.40;58.60
66598;DHT22;57424;53.128;6.406;2023-05-10T02:42:27;20.40;58.60
66598;DHT22;57424;53.128;6.406;2023-05-10T02:45:03;20.40;58.50
66598;DHT22;57424;53.128;6.406;2023-05-10T02:47:30;20.40;58.50
66598;DHT22;57424;53.128;6.406;2023-05-10T02:49:56;20.40;58.60
66598;DHT22;57424;53.128;6.406;2023-05-10T02:52:29;20.40;58.50
66598;DHT22;57424;53.128;6.406;2023-05-10T02:55:00;20.40;58.50
66598;DHT22;57424;53.128;6.406;2023-05-10T02:57:28;20.30;58.60
66598;DHT22;57424;53.128;6.406;2023-05-10T02:59:54;20.40;58.50
66598;DHT22;57424;53.128;6.406;2023-05-10T03:02:20;20.40;58.60
66598;DHT22;57424;53.128;6.406;2023-05-10T03:04:46;20.40;58.60
66598;DHT22;57424;53.128;6.406;2023-05-10T03:07:12;20.30;58.50
66598;DHT22;57424;53.128;6.406;2023-05-10T03:09:38;20.30;58.50
66598;DHT22;57424;53.128;6.406;2023-05-10T03:15:03;20.30;58.60
66598;DHT22;57424;53.128;6.406;2023-05-10T03:20:11;20.30;58.60
66598;DHT22;57424;53.128;6.406;2023-05-10T03:22:49;20.30;58.60
66598;DHT22;57424;53.128;6.406;2023-05-10T03:25:16;20.30;58.60
66598;DHT22;57424;53.128;6.406;2023-05-10T03:27:45;20.30;58.50
66598;DHT22;57424;53.128;6.406;2023-05-10T03:30:12;20.30;58.50
66598;DHT22;57424;53.128;6.406;2023-05-10T03:32:38;20.30;58.50
66598;DHT22;57424;53.128;6.406;2023-05-10T03:35:11;20.30;58.50
66598;DHT22;57424;53.128;6.406;2023-05-10T03:37:37;20.30;58.50
66598;DHT22;57424;53.128;6.406;2023-05-10T03:40:04;20.30;58.50
66598;DHT22;57424;53.128;6.406;2023-05-10T03:42:29;20.30;58.50
66598;DHT22;57424;53.128;6.406;2023-05-10T03:44:55;20.30;58.50
66598;DHT22;57424;53.128;6.406;2023-05-10T03:47:20;20.20;58.40
66598;DHT22;57424;53.128;6.406;2023-05-10T03:49:46;20.20;58.50
66598;DHT22;57424;53.128;6.406;2023-05-10T03:52:11;20.30;58.50
66598;DHT22;57424;53.128;6.406;2023-05-10T03:54:37;20.30;58.50
66598;DHT22;57424;53.128;6.406;2023-05-10T03:57:03;20.20;58.40
66598;DHT22;57424;53.128;6.406;2023-05-10T03:59:29;20.30;58.50
66598;DHT22;57424;53.128;6.406;2023-05-10T04:01:55;20.30;58.50
66598;DHT22;57424;53.128;6.406;2023-05-10T04:04:21;20.30;58.50
66598;DHT22;57424;53.128;6.406;2023-05-10T04:06:47;20.20;58.50
66598;DHT22;57424;53.128;6.406;2023-05-10T04:09:12;20.20;58.50
66598;DHT22;57424;53.128;6.406;2023-05-10T04:11:38;20.20;58.40
66598;DHT22;57424;53.128;6.406;2023-05-10T04:14:03;20.20;58.40
66598;DHT22;57424;53.128;6.406;2023-05-10T04:16:29;20.20;58.50
66598;DHT22;57424;53.128;6.406;2023-05-10T04:18:54;20.20;58.40
66598;DHT22;57424;53.128;6.406;2023-05-10T04:21:20;20.20;58.40
66598;DHT22;57424;53.128;6.406;2023-05-10T04:23:46;20.20;58.40
66598;DHT22;57424;53.128;6.406;2023-05-10T04:26:12;20.20;58.40
66598;DHT22;57424;53.128;6.406;2023-05-10T04:28:37;20.20;59.10
66598;DHT22;57424;53.128;6.406;2023-05-10T04:31:04;20.20;58.40
66598;DHT22;57424;53.128;6.406;2023-05-10T04:33:30;20.20;58.40
66598;DHT22;57424;53.128;6.406;2023-05-10T04:35:56;20.20;58.40
66598;DHT22;57424;53.128;6.406;2023-05-10T04:38:21;20.20;58.40
66598;DHT22;57424;53.128;6.406;2023-05-10T04:40:47;20.20;59.10
66598;DHT22;57424;53.128;6.406;2023-05-10T04:43:12;20.20;58.40
66598;DHT22;57424;53.128;6.406;2023-05-10T04:45:38;20.20;58.40
66598;DHT22;57424;53.128;6.406;2023-05-10T04:48:04;20.20;58.40
66598;DHT22;57424;53.128;6.406;2023-05-10T04:50:30;20.20;58.40
66598;DHT22;57424;53.128;6.406;2023-05-10T04:52:55;20.20;58.40
66598;DHT22;57424;53.128;6.406;2023-05-10T04:55:21;20.20;58.30
66598;DHT22;57424;53.128;6.406;2023-05-10T04:57:46;20.20;58.30
66598;DHT22;57424;53.128;6.406;2023-05-10T05:00:12;20.20;58.30
66598;DHT22;57424;53.128;6.406;2023-05-10T05:02:38;20.20;58.40
66598;DHT22;57424;53.128;6.406;2023-05-10T05:05:04;20.20;58.40
66598;DHT22;57424;53.128;6.406;2023-05-10T05:07:30;20.10;58.30
66598;DHT22;57424;53.128;6.406;2023-05-10T05:09:56;20.20;58.30
66598;DHT22;57424;53.128;6.406;2023-05-10T05:12:21;20.20;58.30
66598;DHT22;57424;53.128;6.406;2023-05-10T05:14:47;20.10;58.30
66598;DHT22;57424;53.128;6.406;2023-05-10T05:17:12;20.10;58.30
66598;DHT22;57424;53.128;6.406;2023-05-10T05:19:39;20.10;58.30
66598;DHT22;57424;53.128;6.406;2023-05-10T05:22:06;20.20;58.30
66598;DHT22;57424;53.128;6.406;2023-05-10T05:24:36;20.10;58.30
66598;DHT22;57424;53.128;6.406;2023-05-10T05:27:05;20.10;58.30
66598;DHT22;57424;53.128;6.406;2023-05-10T05:29:31;20.10;58.30
66598;DHT22;57424;53.128;6.406;2023-05-10T05:31:56;20.10;58.30
66598;DHT22;57424;53.128;6.406;2023-05-10T05:34:22;20.10;58.30
66598;DHT22;57424;53.128;6.406;2023-05-10T05:36:48;20.10;58.30
66598;DHT22;57424;53.128;6.406;2023-05-10T05:39:14;20.10;58.30
66598;DHT22;57424;53.128;6.406;2023-05-10T05:41:39;20.10;58.30
66598;DHT22;57424;53.128;6.406;2023-05-10T05:44:05;20.10;58.30
66598;DHT22;57424;53.128;6.406;2023-05-10T05:46:30;20.10;58.30
66598;DHT22;57424;53.128;6.406;2023-05-10T05:48:56;20.10;58.30
66598;DHT22;57424;53.128;6.406;2023-05-10T05:51:22;20.10;58.30
66598;DHT22;57424;53.128;6.406;2023-05-10T05:53:47;20.10;58.30
66598;DHT22;57424;53.128;6.406;2023-05-10T05:56:13;20.10;58.30
66598;DHT22;57424;53.128;6.406;2023-05-10T05:58:39;20.10;58.30
66598;DHT22;57424;53.128;6.406;2023-05-10T06:01:04;20.10;58.20
66598;DHT22;57424;53.128;6.406;2023-05-10T06:03:30;20.00;58.20
66598;DHT22;57424;53.128;6.406;2023-05-10T06:05:55;20.10;58.30
66598;DHT22;57424;53.128;6.406;2023-05-10T06:08:21;20.10;58.30
66598;DHT22;57424;53.128;6.406;2023-05-10T06:10:47;20.00;58.20
66598;DHT22;57424;53.128;6.406;2023-05-10T06:13:13;20.00;58.20
66598;DHT22;57424;53.128;6.406;2023-05-10T06:15:38;20.00;58.20
66598;DHT22;57424;53.128;6.406;2023-05-10T06:18:04;20.00;58.20
66598;DHT22;57424;53.128;6.406;2023-05-10T06:20:29;20.10;58.20
66598;DHT22;57424;53.128;6.406;2023-05-10T06:22:57;20.00;58.20
66598;DHT22;57424;53.128;6.406;2023-05-10T06:25:23;20.00;58.20
66598;DHT22;57424;53.128;6.406;2023-05-10T06:27:48;20.00;58.30
66598;DHT22;57424;53.128;6.406;2023-05-10T06:30:15;20.00;58.30
66598;DHT22;57424;53.128;6.406;2023-05-10T06:32:41;20.00;58.50
66598;DHT22;57424;53.128;6.406;2023-05-10T06:35:09;20.00;58.50
66598;DHT22;57424;53.128;6.406;2023-05-10T06:37:35;20.00;58.60
66598;DHT22;57424;53.128;6.406;2023-05-10T06:40:00;20.00;58.60
66598;DHT22;57424;53.128;6.406;2023-05-10T06:42:27;20.00;58.70
66598;DHT22;57424;53.128;6.406;2023-05-10T06:44:52;20.00;58.60
66598;DHT22;57424;53.128;6.406;2023-05-10T06:47:18;20.00;58.60
66598;DHT22;57424;53.128;6.406;2023-05-10T06:49:44;20.00;58.60
66598;DHT22;57424;53.128;6.406;2023-05-10T06:52:09;20.00;58.60
66598;DHT22;57424;53.128;6.406;2023-05-10T06:54:35;20.10;58.70
66598;DHT22;57424;53.128;6.406;2023-05-10T06:57:00;20.00;58.60
66598;DHT22;57424;53.128;6.406;2023-05-10T06:59:28;20.10;58.60
66598;DHT22;57424;53.128;6.406;2023-05-10T07:01:53;20.00;58.60
66598;DHT22;57424;53.128;6.406;2023-05-10T07:04:19;20.00;58.60
66598;DHT22;57424;53.128;6.406;2023-05-10T07:06:44;20.00;58.70
66598;DHT22;57424;53.128;6.406;2023-05-10T07:09:11;20.00;58.70
66598;DHT22;57424;53.128;6.406;2023-05-10T07:11:37;20.00;58.70
66598;DHT22;57424;53.128;6.406;2023-05-10T07:14:02;20.10;58.80
66598;DHT22;57424;53.128;6.406;2023-05-10T07:16:28;20.00;58.80
66598;DHT22;57424;53.128;6.406;2023-05-10T07:18:54;20.10;58.80
66598;DHT22;57424;53.128;6.406;2023-05-10T07:21:19;20.10;58.80
66598;DHT22;57424;53.128;6.406;2023-05-10T07:23:45;20.10;58.80
66598;DHT22;57424;53.128;6.406;2023-05-10T07:26:11;20.00;58.80
66598;DHT22;57424;53.128;6.406;2023-05-10T07:28:37;20.00;58.80
66598;DHT22;57424;53.128;6.406;2023-05-10T07:31:03;20.00;58.80
66598;DHT22;57424;53.128;6.406;2023-05-10T07:33:29;20.10;58.90
66598;DHT22;57424;53.128;6.406;2023-05-10T07:35:54;20.00;58.80
66598;DHT22;57424;53.128;6.406;2023-05-10T07:38:20;20.00;58.80
66598;DHT22;57424;53.128;6.406;2023-05-10T07:40:45;20.00;58.80
66598;DHT22;57424;53.128;6.406;2023-05-10T07:43:11;20.10;58.80
66598;DHT22;57424;53.128;6.406;2023-05-10T07:45:36;20.00;58.80
66598;DHT22;57424;53.128;6.406;2023-05-10T07:48:02;20.00;58.80
66598;DHT22;57424;53.128;6.406;2023-05-10T07:50:28;20.00;58.80
66598;DHT22;57424;53.128;6.406;2023-05-10T07:52:53;20.10;58.90
66598;DHT22;57424;53.128;6.406;2023-05-10T07:55:19;20.10;58.90
66598;DHT22;57424;53.128;6.406;2023-05-10T07:57:46;20.00;58.80
66598;DHT22;57424;53.128;6.406;2023-05-10T08:00:13;20.00;58.80
66598;DHT22;57424;53.128;6.406;2023-05-10T08:02:39;20.10;58.90
66598;DHT22;57424;53.128;6.406;2023-05-10T08:05:05;20.00;58.80
66598;DHT22;57424;53.128;6.406;2023-05-10T08:07:30;20.00;58.80
66598;DHT22;57424;53.128;6.406;2023-05-10T08:09:56;20.00;59.00
66598;DHT22;57424;53.128;6.406;2023-05-10T08:12:22;20.10;59.20
66598;DHT22;57424;53.128;6.406;2023-05-10T08:14:47;20.00;59.10
66598;DHT22;57424;53.128;6.406;2023-05-10T08:17:13;20.00;59.10
66598;DHT22;57424;53.128;6.406;2023-05-10T08:19:38;20.10;59.20
66598;DHT22;57424;53.128;6.406;2023-05-10T08:22:04;20.00;59.20
66598;DHT22;57424;53.128;6.406;2023-05-10T08:24:29;20.10;59.30
66598;DHT22;57424;53.128;6.406;2023-05-10T08:26:55;20.10;59.30
66598;DHT22;57424;53.128;6.406;2023-05-10T08:29:21;20.10;59.30
66598;DHT22;57424;53.128;6.406;2023-05-10T08:31:46;20.10;59.30
66598;DHT22;57424;53.128;6.406;2023-05-10T08:34:12;20.10;59.30
66598;DHT22;57424;53.128;6.406;2023-05-10T08:36:37;20.10;59.30
66598;DHT22;57424;53.128;6.406;2023-05-10T08:39:03;20.10;59.20
66598;DHT22;57424;53.128;6.406;2023-05-10T08:41:29;20.10;59.30
66598;DHT22;57424;53.128;6.406;2023-05-10T08:43:56;20.10;59.20
66598;DHT22;57424;53.128;6.406;2023-05-10T08:46:23;20.20;59.20
66598;DHT22;57424;53.128;6.406;2023-05-10T08:48:50;20.20;59.20
66598;DHT22;57424;53.128;6.406;2023-05-10T08:51:21;20.20;59.20
66598;DHT22;57424;53.128;6.406;2023-05-10T08:53:47;20.20;59.10
66598;DHT22;57424;53.128;6.406;2023-05-10T08:56:13;20.20;59.10
66598;DHT22;57424;53.128;6.406;2023-05-10T08:58:41;20.30;59.10
66598;DHT22;57424;53.128;6.406;2023-05-10T09:01:07;20.20;59.10
66598;DHT22;57424;53.128;6.406;2023-05-10T09:03:33;20.20;59.00
66598;DHT22;57424;53.128;6.406;2023-05-10T09:06:02;20.30;59.10
66598;DHT22;57424;53.128;6.406;2023-05-10T09:08:28;20.30;59.10
66598;DHT22;57424;53.128;6.406;2023-05-10T09:10:56;20.20;59.00
66598;DHT22;57424;53.128;6.406;2023-05-10T09:13:22;20.30;59.10
66598;DHT22;57424;53.128;6.406;2023-05-10T09:15:49;20.30;59.00
66598;DHT22;57424;53.128;6.406;2023-05-10T09:18:14;20.30;59.00
66598;DHT22;57424;53.128;6.406;2023-05-10T09:20:40;20.30;59.00
66598;DHT22;57424;53.128;6.406;2023-05-10T09:23:06;20.30;58.90
66598;DHT22;57424;53.128;6.406;2023-05-10T09:25:32;20.30;59.00
66598;DHT22;57424;53.128;6.406;2023-05-10T09:28:01;20.30;59.00
66598;DHT22;57424;53.128;6.406;2023-05-10T09:30:29;20.30;59.00
66598;DHT22;57424;53.128;6.406;2023-05-10T09:32:55;20.30;59.00
66598;DHT22;57424;53.128;6.406;2023-05-10T09:35:23;20.30;59.00
66598;DHT22;57424;53.128;6.406;2023-05-10T09:37:51;20.30;59.00
66598;DHT22;57424;53.128;6.406;2023-05-10T09:40:21;20.30;59.00
66598;DHT22;57424;53.128;6.406;2023-05-10T09:45:19;20.40;59.00
66598;DHT22;57424;53.128;6.406;2023-05-10T09:47:45;20.30;59.00
66598;DHT22;57424;53.128;6.406;2023-05-10T09:50:11;20.40;59.00
66598;DHT22;57424;53.128;6.406;2023-05-10T09:52:53;20.40;59.10
66598;DHT22;57424;53.128;6.406;2023-05-10T09:55:24;20.40;59.00
66598;DHT22;57424;53.128;6.406;2023-05-10T09:57:59;20.40;59.00
66598;DHT22;57424;53.128;6.406;2023-05-10T10:00:25;20.40;58.90
66598;DHT22;57424;53.128;6.406;2023-05-10T10:02:56;20.40;58.90
66598;DHT22;57424;53.128;6.406;2023-05-10T10:05:28;20.40;58.90
66598;DHT22;57424;53.128;6.406;2023-05-10T10:07:54;20.40;58.80
66598;DHT22;57424;53.128;6.406;2023-05-10T10:10:21;20.50;58.90
66598;DHT22;57424;53.128;6.406;2023-05-10T10:12:46;20.50;58.90
66598;DHT22;57424;53.128;6.406;2023-05-10T10:15:12;20.50;58.80
66598;DHT22;57424;53.128;6.406;2023-05-10T10:17:38;20.50;58.80
66598;DHT22;57424;53.128;6.406;2023-05-10T10:20:04;20.50;59.10
66598;DHT22;57424;53.128;6.406;2023-05-10T10:22:30;20.50;58.80
66598;DHT22;57424;53.128;6.406;2023-05-10T10:24:56;20.50;58.80
66598;DHT22;57424;53.128;6.406;2023-05-10T10:27:34;20.50;58.80
66598;DHT22;57424;53.128;6.406;2023-05-10T10:36:02;20.50;59.00
66598;DHT22;57424;53.128;6.406;2023-05-10T10:41:11;20.50;59.10
66598;DHT22;57424;53.128;6.406;2023-05-10T10:43:46;20.50;59.20
66598;DHT22;57424;53.128;6.406;2023-05-10T10:46:17;20.50;59.10
66598;DHT22;57424;53.128;6.406;2023-05-10T10:48:50;20.50;59.10
66598;DHT22;57424;53.128;6.406;2023-05-10T10:51:19;20.60;59.20
66598;DHT22;57424;53.128;6.406;2023-05-10T10:53:44;20.60;59.10
66598;DHT22;57424;53.128;6.406;2023-05-10T10:56:13;20.60;59.10
66598;DHT22;57424;53.128;6.406;2023-05-10T10:58:39;20.50;59.00
66598;DHT22;57424;53.128;6.406;2023-05-10T11:01:12;20.50;59.00
66598;DHT22;57424;53.128;6.406;2023-05-10T11:03:38;20.60;59.20
66598;DHT22;57424;53.128;6.406;2023-05-10T11:06:04;20.60;59.20
66598;DHT22;57424;53.128;6.406;2023-05-10T11:08:34;20.60;59.20
66598;DHT22;57424;53.128;6.406;2023-05-10T11:16:23;20.60;59.20
66598;DHT22;57424;53.128;6.406;2023-05-10T11:19:07;20.70;59.30
66598;DHT22;57424;53.128;6.406;2023-05-10T11:21:34;20.60;59.90
66598;DHT22;57424;53.128;6.406;2023-05-10T11:24:13;20.70;59.40
66598;DHT22;57424;53.128;6.406;2023-05-10T11:26:39;20.70;59.30
66598;DHT22;57424;53.128;6.406;2023-05-10T11:29:06;20.70;59.30
66598;DHT22;57424;53.128;6.406;2023-05-10T11:31:32;20.70;59.20
66598;DHT22;57424;53.128;6.406;2023-05-10T11:33:59;20.70;59.20
66598;DHT22;57424;53.128;6.406;2023-05-10T11:36:29;20.70;59.20
66598;DHT22;57424;53.128;6.406;2023-05-10T11:38:56;20.70;59.20
66598;DHT22;57424;53.128;6.406;2023-05-10T11:41:23;20.70;59.20
66598;DHT22;57424;53.128;6.406;2023-05-10T11:43:50;20.60;59.10
66598;DHT22;57424;53.128;6.406;2023-05-10T11:46:19;20.70;59.10
66598;DHT22;57424;53.128;6.406;2023-05-10T11:48:47;20.70;59.10
66598;DHT22;57424;53.128;6.406;2023-05-10T11:51:14;20.70;59.10
66598;DHT22;57424;53.128;6.406;2023-05-10T11:53:40;20.60;59.00
66598;DHT22;57424;53.128;6.406;2023-05-10T11:56:07;20.70;59.00
66598;DHT22;57424;53.128;6.406;2023-05-10T11:58:33;20.70;59.00
66598;DHT22;57424;53.128;6.406;2023-05-10T12:01:00;20.70;59.00
66598;DHT22;57424;53.128;6.406;2023-05-10T12:03:26;20.60;59.00
66598;DHT22;57424;53.128;6.406;2023-05-10T12:05:52;20.60;59.00
66598;DHT22;57424;53.128;6.406;2023-05-10T12:08:23;20.60;59.00
66598;DHT22;57424;53.128;6.406;2023-05-10T12:10:49;20.70;59.10
66598;DHT22;57424;53.128;6.406;2023-05-10T12:13:15;20.60;59.00
66598;DHT22;57424;53.128;6.406;2023-05-10T12:15:41;20.60;59.00
66598;DHT22;57424;53.128;6.406;2023-05-10T12:18:11;20.60;59.00
66598;DHT22;57424;53.128;6.406;2023-05-10T12:20:38;20.60;59.00
66598;DHT22;57424;53.128;6.406;2023-05-10T12:23:04;20.60;59.00
66598;DHT22;57424;53.128;6.406;2023-05-10T12:25:34;20.60;58.90
66598;DHT22;57424;53.128;6.406;2023-05-10T12:28:03;20.60;59.50
66598;DHT22;57424;53.128;6.406;2023-05-10T12:30:32;20.60;58.90
66598;DHT22;57424;53.128;6.406;2023-05-10T12:33:08;20.60;58.90
66598;DHT22;57424;53.128;6.406;2023-05-10T12:35:53;20.60;58.80
66598;DHT22;57424;53.128;6.406;2023-05-10T12:38:34;20.60;58.80
66598;DHT22;57424;53.128;6.406;2023-05-10T12:41:07;20.60;58.90
66598;DHT22;57424;53.128;6.406;2023-05-10T12:43:34;20.60;59.00
66598;DHT22;57424;53.128;6.406;2023-05-10T12:46:16;20.60;59.10
66598;DHT22;57424;53.128;6.406;2023-05-10T12:48:43;20.60;59.10
66598;DHT22;57424;53.128;6.406;2023-05-10T12:51:10;20.60;59.10
66598;DHT22;57424;53.128;6.406;2023-05-10T12:53:38;20.60;59.10
66598;DHT22;57424;53.128;6.406;2023-05-10T12:56:04;20.60;59.20
66598;DHT22;57424;53.128;6.406;2023-05-10T12:58:30;20.60;59.10
66598;DHT22;57424;53.128;6.406;2023-05-10T13:00:58;20.60;59.10
66598;DHT22;57424;53.128;6.406;2023-05-10T13:03:24;20.60;59.10
66598;DHT22;57424;53.128;6.406;2023-05-10T13:05:49;20.70;59.20
66598;DHT22;57424;53.128;6.406;2023-05-10T13:08:15;20.70;59.10
66598;DHT22;57424;53.128;6.406;2023-05-10T13:10:41;20.70;59.10
66598;DHT22;57424;53.128;6.406;2023-05-10T13:13:06;20.70;59.10
66598;DHT22;57424;53.128;6.406;2023-05-10T13:15:33;20.70;59.70
66598;DHT22;57424;53.128;6.406;2023-05-10T13:17:59;20.70;59.00
66598;DHT22;57424;53.128;6.406;2023-05-10T13:20:26;20.70;59.00
66598;DHT22;57424;53.128;6.406;2023-05-10T13:22:52;20.70;59.00
66598;DHT22;57424;53.128;6.406;2023-05-10T13:25:19;20.70;58.90
66598;DHT22;57424;53.128;6.406;2023-05-10T13:27:45;20.70;58.90
66598;DHT22;57424;53.128;6.406;2023-05-10T13:30:11;20.80;58.80
66598;DHT22;57424;53.128;6.406;2023-05-10T13:32:37;20.80;58.70
66598;DHT22;57424;53.128;6.406;2023-05-10T13:35:03;20.80;58.70
66598;DHT22;57424;53.128;6.406;2023-05-10T13:37:30;20.80;58.70
66598;DHT22;57424;53.128;6.406;2023-05-10T13:39:56;20.80;58.60
66598;DHT22;57424;53.128;6.406;2023-05-10T13:42:22;20.80;58.60
66598;DHT22;57424;53.128;6.406;2023-05-10T13:44:49;20.80;58.60
66598;DHT22;57424;53.128;6.406;2023-05-10T13:47:15;20.80;58.70
66598;DHT22;57424;53.128;6.406;2023-05-10T13:49:40;20.80;58.70
66598;DHT22;57424;53.128;6.406;2023-05-10T13:52:06;20.80;58.60
66598;DHT22;57424;53.128;6.406;2023-05-10T13:54:38;20.90;58.60
66598;DHT22;57424;53.128;6.406;2023-05-10T13:57:05;20.80;58.40
66598;DHT22;57424;53.128;6.406;2023-05-10T13:59:30;20.80;58.40
66598;DHT22;57424;53.128;6.406;2023-05-10T14:01:59;20.80;58.40
66598;DHT22;57424;53.128;6.406;2023-05-10T14:04:25;20.80;58.30
66598;DHT22;57424;53.128;6.406;2023-05-10T14:06:50;20.90;58.40
66598;DHT22;57424;53.128;6.406;2023-05-10T14:09:18;20.90;58.40
66598;DHT22;57424;53.128;6.406;2023-05-10T14:11:43;20.90;58.30
66598;DHT22;57424;53.128;6.406;2023-05-10T14:14:10;20.90;58.30
66598;DHT22;57424;53.128;6.406;2023-05-10T14:16:35;20.80;58.30
66598;DHT22;57424;53.128;6.406;2023-05-10T14:19:01;20.90;58.30
66598;DHT22;57424;53.128;6.406;2023-05-10T14:21:27;20.90;58.30
66598;DHT22;57424;53.128;6.406;2023-05-10T14:23:54;20.90;58.30
66598;DHT22;57424;53.128;6.406;2023-05-10T14:26:21;20.90;58.30
66598;DHT22;57424;53.128;6.406;2023-05-10T14:28:47;20.90;58.20
66598;DHT22;57424;53.128;6.406;2023-05-10T14:31:12;20.80;58.20
66598;DHT22;57424;53.128;6.406;2023-05-10T14:33:38;20.90;58.20
66598;DHT22;57424;53.128;6.406;2023-05-10T14:36:03;20.80;58.20
66598;DHT22;57424;53.128;6.406;2023-05-10T14:38:29;20.90;58.20
66598;DHT22;57424;53.128;6.406;2023-05-10T14:40:55;20.80;58.20
66598;DHT22;57424;53.128;6.406;2023-05-10T14:43:20;20.80;58.20
66598;DHT22;57424;53.128;6.406;2023-05-10T14:45:46;20.80;58.30
66598;DHT22;57424;53.128;6.406;2023-05-10T14:48:12;20.80;58.30
66598;DHT22;57424;53.128;6.406;2023-05-10T14:50:41;20.80;58.40
66598;DHT22;57424;53.128;6.406;2023-05-10T14:53:06;20.80;58.40
66598;DHT22;57424;53.128;6.406;2023-05-10T14:55:32;20.80;58.50
66598;DHT22;57424;53.128;6.406;2023-05-10T14:57:58;20.80;58.60
66598;DHT22;57424;53.128;6.406;2023-05-10T15:00:23;20.80;58.60
66598;DHT22;57424;53.128;6.406;2023-05-10T15:02:49;20.80;58.60
66598;DHT22;57424;53.128;6.406;2023-05-10T15:05:15;20.80;58.70
66598;DHT22;57424;53.128;6.406;2023-05-10T15:07:40;20.80;58.70
66598;DHT22;57424;53.128;6.406;2023-05-10T15:10:09;20.80;58.80
66598;DHT22;57424;53.128;6.406;2023-05-10T15:12:35;20.90;59.00
66598;DHT22;57424;53.128;6.406;2023-05-10T15:15:00;20.80;59.00
66598;DHT22;57424;53.128;6.406;2023-05-10T15:17:26;20.90;59.10
66598;DHT22;57424;53.128;6.406;2023-05-10T15:19:51;20.80;59.20
66598;DHT22;57424;53.128;6.406;2023-05-10T15:22:17;20.90;59.20
66598;DHT22;57424;53.128;6.406;2023-05-10T15:24:43;20.90;59.30
66598;DHT22;57424;53.128;6.406;2023-05-10T15:27:08;20.90;59.20
66598;DHT22;57424;53.128;6.406;2023-05-10T15:29:34;20.90;59.30
66598;DHT22;57424;53.128;6.406;2023-05-10T15:32:01;20.90;59.20
66598;DHT22;57424;53.128;6.406;2023-05-10T15:34:27;20.90;59.20
66598;DHT22;57424;53.128;6.406;2023-05-10T15:36:53;20.90;59.10
66598;DHT22;57424;53.128;6.406;2023-05-10T15:39:18;20.90;59.20
66598;DHT22;57424;53.128;6.406;2023-05-10T15:41:44;20.90;59.20
66598;DHT22;57424;53.128;6.406;2023-05-10T15:44:10;20.90;59.20
66598;DHT22;57424;53.128;6.406;2023-05-10T15:46:36;20.90;59.30
66598;DHT22;57424;53.128;6.406;2023-05-10T15:49:03;20.90;59.30
66598;DHT22;57424;53.128;6.406;2023-05-10T15:51:28;20.90;59.20
66598;DHT22;57424;53.128;6.406;2023-05-10T15:53:54;20.90;59.80
66598;DHT22;57424;53.128;6.406;2023-05-10T15:56:20;20.90;59.10
66598;DHT22;57424;53.128;6.406;2023-05-10T15:58:45;20.90;59.70
66598;DHT22;57424;53.128;6.406;2023-05-10T16:01:11;20.90;59.00
66598;DHT22;57424;53.128;6.406;2023-05-10T16:03:37;20.90;59.00
66598;DHT22;57424;53.128;6.406;2023-05-10T16:06:03;20.90;59.00